ADDS METAR Data INFO
IDs: Format: Raw Decoded Include TAF

Data at: 1516 UTC 11 Dec 2017

KCEY 111435Z AUTO 21006KT 10SM CLR 04/00 A3010 RMK AO1
KCEY 111415Z AUTO 18006KT 10SM CLR 03/00 A3010 RMK AO1
KCEY 111155Z AUTO 17003KT 10SM CLR M01/M02 A3010 RMK AO1
KCEY 111135Z AUTO 18005KT 10SM CLR M01/M02 A3011 RMK AO1
KCEY 111015Z AUTO 20003KT 10SM CLR M01/M03 A3013 RMK AO1
KCEY 110955Z AUTO 23004KT 10SM CLR 00/M02 A3013 RMK AO1
KCEY 110835Z AUTO 22003KT 10SM CLR 00/M03 A3014 RMK AO1
KCEY 110715Z AUTO 22003KT 10SM 00/M03 A3015 RMK AO1
KCEY 110655Z AUTO 23004KT 10SM CLR 01/M03 A3015 RMK AO1
KCEY 110635Z AUTO 00000KT 10SM CLR 02/M03 A3016 RMK AO1
KCEY 110515Z AUTO 26007KT 10SM CLR 03/M03 A3015 RMK AO1
KCEY 110255Z AUTO 21010KT 10SM CLR 05/M03 A3014 RMK AO1
KCEY 110135Z AUTO 21008KT 10SM CLR 06/M04 A3013 RMK AO1
KCEY 110115Z AUTO 21009KT 10SM CLR 06/M04 A3013 RMK AO1
KCEY 110055Z AUTO 20009KT 10SM CLR 06/M04 A3013 RMK AO1
KCEY 110035Z AUTO 21009KT 10SM CLR 06/M04 A3013 RMK AO1
KCEY 110015Z AUTO 21007KT 10SM CLR 06/M04 A3012 RMK AO1
KCEY 102255Z AUTO 21007KT 10SM CLR 07/M04 A3010 RMK AO1
KCEY 102035Z AUTO 20011G20KT 170V230 10SM CLR 09/M05 A3009 RMK AO1
KCEY 102015Z AUTO 21015G21KT 10SM CLR 09/M05 A3010 RMK AO1
KCEY 101955Z AUTO 20011G19KT 10SM CLR 09/M05 A3010 RMK AO1
KCEY 101935Z AUTO 21016G20KT 160V230 10SM CLR 08/M05 A3010 RMK AO1
KCEY 101815Z AUTO 21014G19KT 180V240 10SM CLR 07/M06 A3015 RMK AO1
KCEY 101755Z AUTO 20011G17KT 10SM CLR 07/M06 A3016 RMK AO1
KCEY 101635Z AUTO 21010G17KT 170V240 10SM CLR 04/M06 A3021 RMK AO1
KCEY 101615Z AUTO 21012G18KT 10SM CLR 03/M06 A3023 RMK AO1
KCEY 101555Z AUTO 21011G17KT 9SM CLR 02/M06 A3023 RMK AO1
KCEY 101535Z AUTO 21009G15KT 10SM CLR 01/M06 A3023 RMK AO1
KCEY 101515Z AUTO 19009G16KT 10SM CLR 00/M06 A3023 RMK AO1
KCEY 101255Z AUTO 17005KT 10SM CLR M05/M08 A3024 RMK AO1
KCEY 101235Z AUTO 18005KT 10SM CLR M05/M08 A3025 RMK AO1
KCEY 101215Z AUTO 19004KT 10SM CLR M05/M08 A3025 RMK AO1
KCEY 101155Z AUTO 20004KT 10SM CLR M05/M08 A3024 RMK AO1
KCEY 101135Z AUTO 20005KT 10SM CLR M05/M08 A3024 RMK AO1
KCEY 101115Z AUTO 21005KT 10SM CLR M05/M08 A3024 RMK AO1
KCEY 101055Z AUTO 22006KT 10SM CLR M05/M08 A3023 RMK AO1
KCEY 100935Z AUTO 21005KT 10SM CLR M05/M08 A3024 RMK AO1
KCEY 100815Z AUTO 23004KT 10SM CLR M05/M08 A3024 RMK AO1
KCEY 100555Z AUTO 00000KT 10SM CLR M04/M08 A3024 RMK AO1
KCEY 100435Z AUTO 27003KT 10SM CLR M03/M08 A3022 RMK AO1
KCEY 100415Z AUTO 31004KT 10SM CLR M03/M08 A3022 RMK AO1
KCEY 100355Z AUTO 30004KT 10SM CLR M03/M08 A3022 RMK AO1
KCEY 100335Z AUTO 29005KT 10SM CLR M03/M08 A3022 RMK AO1